Time;durP1;ratioP1;P1;durP2;ratioP2;P2;SDS_P1;SDS_P2;PMS_P1;PMS_P2;Temp;Humidity;BMP_temperature;BMP_pressure;BME280_temperature;BME280_humidity;BME280_pressure;Samples;Min_cycle;Max_cycle;Signal;HPM_P1;HPM_P2
2022/08/06 00:00:19;;;;;;;7.90;4.55;;;22.20;99.90;;;;;;5013450;28;20169;-74
2022/08/06 00:02:44;;;;;;;4.47;4.07;;;22.00;99.90;;;;;;5013728;28;20688;-76
2022/08/06 00:05:10;;;;;;;4.30;3.72;;;21.80;99.90;;;;;;5013489;28;20300;-74
2022/08/06 00:07:36;;;;;;;4.35;4.05;;;21.60;99.90;;;;;;5021051;28;20667;-74
2022/08/06 00:10:03;;;;;;;4.20;3.90;;;21.50;99.90;;;;;;5031811;28;20271;-74
2022/08/06 00:12:33;;;;;;;3.83;3.63;;;21.50;99.90;;;;;;5027045;28;20242;-74
2022/08/06 00:14:58;;;;;;;4.50;4.03;;;21.40;99.90;;;;;;5013338;28;20189;-74
2022/08/06 00:17:25;;;;;;;4.72;4.05;;;21.30;99.90;;;;;;5012999;28;20201;-76
2022/08/06 00:19:50;;;;;;;5.35;4.30;;;21.20;99.90;;;;;;5012933;28;20220;-77
2022/08/06 00:22:16;;;;;;;4.80;4.40;;;20.90;99.90;;;;;;5033008;28;20659;-77
2022/08/06 00:24:42;;;;;;;4.72;4.43;;;20.80;99.90;;;;;;5032986;28;20199;-75
2022/08/06 00:27:07;;;;;;;4.78;4.38;;;20.60;99.90;;;;;;5033083;28;20177;-77
2022/08/06 00:29:33;;;;;;;4.82;4.43;;;20.40;99.90;;;;;;5020285;28;20228;-78
2022/08/06 00:31:59;;;;;;;4.82;4.53;;;20.30;99.90;;;;;;5013200;28;20648;-74
2022/08/06 00:34:25;;;;;;;5.63;4.80;;;20.20;99.90;;;;;;5013151;28;20176;-74
2022/08/06 00:36:50;;;;;;;5.25;4.85;;;20.10;99.90;;;;;;5025863;28;20675;-76
2022/08/06 00:39:16;;;;;;;5.82;4.75;;;20.00;99.90;;;;;;5012806;28;20177;-76
2022/08/06 00:41:42;;;;;;;4.10;3.80;;;19.90;99.90;;;;;;5012998;28;20205;-78
2022/08/06 00:44:08;;;;;;;4.65;4.30;;;19.80;99.90;;;;;;5012852;28;20708;-78
2022/08/06 00:46:33;;;;;;;5.47;4.57;;;19.80;99.90;;;;;;5012689;28;20355;-75
2022/08/06 00:48:59;;;;;;;4.88;4.47;;;19.70;99.90;;;;;;5011312;28;20184;-75
2022/08/06 00:51:25;;;;;;;4.68;4.22;;;19.60;99.90;;;;;;5030191;28;20267;-74
2022/08/06 00:53:51;;;;;;;5.00;4.47;;;19.60;99.90;;;;;;5032542;28;20666;-75
2022/08/06 00:56:17;;;;;;;6.03;3.90;;;19.50;99.90;;;;;;5015314;28;20232;-75
2022/08/06 00:58:42;;;;;;;4.00;3.60;;;19.50;99.90;;;;;;5012401;28;20635;-75
2022/08/06 01:01:10;;;;;;;4.60;3.83;;;19.40;99.90;;;;;;5012866;28;20487;-76
2022/08/06 01:03:36;;;;;;;4.10;3.65;;;19.40;99.90;;;;;;5012704;28;20703;-75
2022/08/06 01:06:02;;;;;;;4.15;3.85;;;19.40;99.90;;;;;;5012549;28;20201;-76
2022/08/06 01:08:28;;;;;;;4.18;3.78;;;19.30;99.90;;;;;;5018840;28;20229;-76
2022/08/06 01:10:53;;;;;;;3.83;3.53;;;19.10;99.90;;;;;;5049542;28;20255;-76
2022/08/06 01:13:19;;;;;;;4.30;3.88;;;19.00;99.90;;;;;;5032022;28;20223;-76
2022/08/06 01:15:53;;;;;;;3.90;3.50;;;19.00;99.90;;;;;;5032067;28;20291;-76
2022/08/06 01:18:27;;;;;;;3.58;3.28;;;19.00;99.90;;;;;;5032143;28;20153;-76
2022/08/06 01:21:17;;;;;;;4.35;3.97;;;18.90;99.90;;;;;;5011440;28;20177;-75
2022/08/06 01:23:51;;;;;;;4.93;4.07;;;18.90;99.90;;;;;;5012263;28;20170;-77
2022/08/06 01:26:44;;;;;;;5.22;4.07;;;18.90;99.90;;;;;;5012244;28;20196;-75
2022/08/06 01:29:29;;;;;;;4.50;3.88;;;18.90;99.90;;;;;;5012212;28;20185;-74
2022/08/06 01:32:09;;;;;;;6.32;3.67;;;19.00;99.90;;;;;;5012397;28;20640;-75
2022/08/06 01:34:41;;;;;;;4.28;3.90;;;19.00;99.90;;;;;;5029495;28;20858;-75
2022/08/06 01:37:19;;;;;;;4.10;3.70;;;18.90;99.90;;;;;;5018365;28;20204;-75
2022/08/06 01:39:48;;;;;;;3.80;3.50;;;18.90;99.90;;;;;;5012202;28;20173;-75
2022/08/06 01:42:16;;;;;;;3.42;3.22;;;18.90;99.90;;;;;;5012409;28;20260;-75
2022/08/06 01:44:45;;;;;;;3.78;3.15;;;18.80;99.90;;;;;;5012349;28;20748;-75
2022/08/06 01:47:13;;;;;;;3.40;2.90;;;18.70;99.90;;;;;;5031214;28;20185;-76
2022/08/06 01:49:43;;;;;;;4.95;3.20;;;18.50;99.90;;;;;;5031303;28;20221;-76
2022/08/06 01:52:11;;;;;;;3.17;2.80;;;18.30;99.90;;;;;;5031052;28;20180;-76
2022/08/06 01:54:42;;;;;;;3.70;3.45;;;18.20;99.90;;;;;;5024229;28;20201;-76
2022/08/06 01:57:09;;;;;;;4.38;2.80;;;18.10;99.90;;;;;;5011940;28;20251;-76
2022/08/06 01:59:41;;;;;;;6.65;3.35;;;17.70;99.90;;;;;;5011708;28;20231;-77
2022/08/06 02:02:10;;;;;;;3.50;3.30;;;17.40;99.90;;;;;;5011743;28;20184;-78
2022/08/06 02:04:39;;;;;;;4.80;4.10;;;17.10;99.90;;;;;;5027193;28;20204;-80
2022/08/06 02:07:09;;;;;;;4.07;3.78;;;17.10;99.90;;;;;;5031498;28;20275;-78
2022/08/06 02:09:37;;;;;;;5.63;3.83;;;16.80;99.90;;;;;;5031744;28;20184;-78
2022/08/06 02:12:09;;;;;;;3.90;3.53;;;16.70;99.90;;;;;;5018133;28;20284;-79
2022/08/06 02:14:40;;;;;;;3.83;3.50;;;16.60;99.90;;;;;;5011867;28;20197;-78
2022/08/06 02:17:07;;;;;;;3.92;3.53;;;16.60;99.90;;;;;;5013241;28;20680;-78
2022/08/06 02:19:33;;;;;;;4.05;3.53;;;16.50;99.90;;;;;;5025336;28;20276;-78
2022/08/06 02:22:02;;;;;;;3.75;3.45;;;16.50;99.90;;;;;;5012210;28;20613;-78
2022/08/06 02:24:30;;;;;;;3.85;3.55;;;16.50;99.90;;;;;;5011660;28;20200;-78
2022/08/06 02:27:00;;;;;;;4.45;3.80;;;16.50;99.90;;;;;;5012021;28;20624;-78
2022/08/06 02:29:27;;;;;;;4.28;3.90;;;16.40;99.90;;;;;;5011412;28;20185;-78
2022/08/06 02:31:53;;;;;;;3.72;3.50;;;16.50;99.90;;;;;;5013094;28;20648;-77
2022/08/06 02:34:20;;;;;;;3.67;3.47;;;16.40;99.90;;;;;;5011604;28;20197;-77
2022/08/06 02:36:52;;;;;;;3.70;3.40;;;16.50;99.90;;;;;;5011427;28;20247;-77
2022/08/06 02:39:23;;;;;;;3.50;3.30;;;16.60;99.90;;;;;;5011279;28;20196;-77
2022/08/06 02:42:13;;;;;;;4.00;3.53;;;16.50;99.90;;;;;;5013504;28;20252;-76
2022/08/06 02:44:48;;;;;;;4.90;3.80;;;16.50;99.90;;;;;;5015213;28;20320;-76
2022/08/06 02:47:36;;;;;;;4.90;3.83;;;16.50;99.90;;;;;;5024695;28;20279;-79
2022/08/06 02:50:04;;;;;;;3.88;3.67;;;16.60;99.90;;;;;;5034747;28;20209;-77
2022/08/06 02:52:39;;;;;;;4.13;3.75;;;16.60;99.90;;;;;;5034980;28;20245;-76
2022/08/06 02:55:18;;;;;;;4.55;4.15;;;16.60;99.90;;;;;;5034394;28;20215;-77
2022/08/06 02:57:51;;;;;;;4.75;4.18;;;16.70;99.90;;;;;;5030033;28;20177;-78
2022/08/06 03:00:18;;;;;;;5.07;4.05;;;16.70;99.90;;;;;;5034498;28;20173;-77
2022/08/06 03:02:47;;;;;;;5.78;4.15;;;16.80;99.90;;;;;;5034419;28;20235;-77
2022/08/06 03:05:18;;;;;;;3.90;3.60;;;16.80;99.90;;;;;;5019815;28;20218;-78
2022/08/06 03:07:46;;;;;;;4.05;3.70;;;16.80;99.90;;;;;;5034173;28;20545;-79
2022/08/06 03:10:12;;;;;;;4.07;3.78;;;16.90;99.90;;;;;;5018938;28;20217;-76
2022/08/06 03:12:38;;;;;;;4.22;3.83;;;16.90;99.90;;;;;;5014664;28;20185;-77
2022/08/06 03:15:06;;;;;;;4.80;4.40;;;16.90;99.90;;;;;;5014805;28;20278;-77
2022/08/06 03:17:34;;;;;;;3.53;3.40;;;16.80;99.90;;;;;;5032226;28;20621;-76
2022/08/06 03:20:02;;;;;;;4.32;3.88;;;16.80;99.90;;;;;;5014462;28;20236;-77
2022/08/06 03:22:30;;;;;;;4.55;4.07;;;16.80;99.90;;;;;;5014531;28;20169;-77
2022/08/06 03:24:57;;;;;;;3.70;3.40;;;16.80;99.90;;;;;;5014529;28;20197;-77
2022/08/06 03:27:23;;;;;;;3.22;3.05;;;16.80;99.90;;;;;;5014333;28;20713;-77
2022/08/06 03:29:50;;;;;;;3.67;3.10;;;16.80;99.90;;;;;;5016119;28;20192;-77
2022/08/06 03:32:16;;;;;;;3.08;2.85;;;16.80;99.90;;;;;;5034094;28;20185;-77
2022/08/06 03:34:43;;;;;;;3.88;3.65;;;16.80;99.90;;;;;;5034136;28;20246;-78
2022/08/06 03:37:09;;;;;;;3.83;3.53;;;16.80;99.90;;;;;;5033970;28;20262;-76
2022/08/06 03:39:38;;;;;;;3.40;3.20;;;16.80;99.90;;;;;;5028063;28;20727;-78
2022/08/06 03:42:05;;;;;;;3.25;3.05;;;16.90;99.90;;;;;;5014265;28;20184;-76
2022/08/06 03:44:31;;;;;;;3.53;3.22;;;16.90;99.90;;;;;;5019776;28;20201;-77
2022/08/06 03:47:04;;;;;;;3.75;3.28;;;16.90;99.90;;;;;;5033960;28;20263;-77
2022/08/06 03:49:42;;;;;;;3.28;3.08;;;17.00;99.90;;;;;;5023540;28;20548;-76
2022/08/06 03:52:12;;;;;;;3.17;2.95;;;17.00;99.90;;;;;;5013820;28;20180;-77
2022/08/06 03:54:43;;;;;;;3.20;3.00;;;17.10;99.90;;;;;;5013525;28;20193;-76
2022/08/06 03:57:12;;;;;;;3.30;3.00;;;17.20;99.90;;;;;;5015557;28;20204;-76
2022/08/06 03:59:41;;;;;;;2.92;2.72;;;17.10;99.90;;;;;;5020843;28;20308;-77
2022/08/06 04:02:08;;;;;;;3.30;3.10;;;17.10;99.90;;;;;;5013953;28;20166;-77
2022/08/06 04:04:35;;;;;;;3.42;3.22;;;17.10;99.90;;;;;;5013610;28;20200;-76
2022/08/06 04:07:01;;;;;;;3.28;3.08;;;17.00;99.90;;;;;;5013539;28;20608;-76
2022/08/06 04:09:31;;;;;;;3.35;3.05;;;17.00;99.90;;;;;;5013702;28;20185;-76
2022/08/06 04:11:57;;;;;;;2.95;2.75;;;17.00;99.90;;;;;;5013368;28;20260;-76
2022/08/06 04:14:23;;;;;;;3.28;3.03;;;17.00;99.90;;;;;;5031617;28;20647;-76
2022/08/06 04:16:50;;;;;;;3.20;2.90;;;17.10;99.90;;;;;;5025074;28;20299;-75
2022/08/06 04:19:18;;;;;;;3.20;2.97;;;17.10;99.90;;;;;;5013280;28;20675;-77
2022/08/06 04:21:47;;;;;;;3.05;2.85;;;17.00;99.90;;;;;;5013489;28;20597;-77
2022/08/06 04:24:14;;;;;;;3.17;2.97;;;17.00;99.90;;;;;;5013103;28;20189;-78
2022/08/06 04:26:43;;;;;;;3.13;2.92;;;17.00;99.90;;;;;;5018879;28;20169;-77
2022/08/06 04:29:12;;;;;;;4.53;3.30;;;17.00;99.90;;;;;;5032752;28;20212;-78
2022/08/06 04:31:40;;;;;;;3.45;3.15;;;17.00;99.90;;;;;;5030305;28;20687;-77
2022/08/06 04:34:07;;;;;;;3.17;2.97;;;16.90;99.90;;;;;;5013310;28;20181;-77
2022/08/06 04:36:33;;;;;;;3.17;3.00;;;16.90;99.90;;;;;;5012931;28;20197;-76
2022/08/06 04:38:58;;;;;;;3.08;2.88;;;16.90;99.90;;;;;;5012889;28;20563;-76
2022/08/06 04:41:25;;;;;;;3.45;3.08;;;16.80;99.90;;;;;;5019403;28;20187;-75
2022/08/06 04:43:53;;;;;;;8.60;5.15;;;16.70;99.90;;;;;;5032808;28;20179;-76
2022/08/06 04:46:20;;;;;;;4.85;4.20;;;16.70;99.90;;;;;;5032776;28;20197;-77
2022/08/06 04:48:47;;;;;;;5.85;5.07;;;16.60;99.90;;;;;;5020531;28;20233;-76
2022/08/06 04:51:12;;;;;;;6.95;6.13;;;16.40;99.90;;;;;;5012818;28;20177;-76
2022/08/06 04:53:40;;;;;;;6.32;5.72;;;16.20;99.90;;;;;;5013258;28;20592;-77
2022/08/06 04:56:07;;;;;;;7.75;6.43;;;16.10;99.90;;;;;;5022641;28;20215;-78
2022/08/06 04:58:33;;;;;;;6.90;6.32;;;16.00;99.90;;;;;;5022914;28;20184;-76
2022/08/06 05:01:00;;;;;;;7.55;6.95;;;15.90;99.90;;;;;;5032611;28;20179;-76
2022/08/06 05:03:26;;;;;;;8.80;8.02;;;15.90;99.90;;;;;;5032248;28;20173;-79
2022/08/06 05:06:02;;;;;;;7.85;7.15;;;15.80;99.90;;;;;;5029201;28;20212;-78
2022/08/06 05:08:29;;;;;;;8.40;7.70;;;15.80;99.90;;;;;;5012482;28;20215;-78
2022/08/06 05:11:02;;;;;;;7.43;6.93;;;15.90;99.90;;;;;;5027752;28;20195;-75
2022/08/06 05:13:34;;;;;;;8.90;7.85;;;15.90;99.90;;;;;;5032190;28;20192;-76
2022/08/06 05:16:05;;;;;;;7.63;6.93;;;15.90;99.90;;;;;;5031804;28;20211;-76
2022/08/06 05:18:38;;;;;;;8.82;8.05;;;15.90;99.90;;;;;;5022945;28;20679;-77
2022/08/06 05:21:05;;;;;;;8.40;7.60;;;16.00;99.90;;;;;;5012544;28;20219;-79
2022/08/06 05:23:44;;;;;;;7.90;7.20;;;16.10;99.90;;;;;;5016472;28;20185;-76
2022/08/06 05:26:11;;;;;;;7.28;6.78;;;16.10;99.90;;;;;;5030728;28;20246;-78
2022/08/06 05:28:41;;;;;;;7.32;6.68;;;16.20;99.90;;;;;;5030393;28;20177;-78
2022/08/06 05:31:07;;;;;;;8.38;7.57;;;16.20;99.90;;;;;;5030364;28;20172;-78
2022/08/06 05:33:38;;;;;;;8.27;7.57;;;16.30;99.90;;;;;;5025264;28;20688;-77
2022/08/06 05:36:09;;;;;;;8.57;7.78;;;16.40;99.90;;;;;;5011836;28;20660;-76
2022/08/06 05:38:37;;;;;;;8.05;7.22;;;16.40;99.90;;;;;;5028933;28;20717;-78
2022/08/06 05:41:08;;;;;;;7.47;6.82;;;16.50;99.90;;;;;;5031901;28;20542;-76
2022/08/06 05:43:35;;;;;;;8.43;7.60;;;16.50;99.90;;;;;;5014281;28;20240;-76
2022/08/06 05:46:06;;;;;;;7.35;6.82;;;16.60;99.90;;;;;;5027488;28;20223;-76
2022/08/06 05:48:42;;;;;;;7.80;7.10;;;16.70;99.90;;;;;;5011708;28;20181;-76
2022/08/06 05:51:12;;;;;;;7.88;7.28;;;16.70;99.90;;;;;;5025191;28;20181;-76
2022/08/06 05:53:47;;;;;;;7.30;6.60;;;16.60;99.90;;;;;;5027927;28;20181;-75
2022/08/06 05:56:17;;;;;;;8.48;7.78;;;16.70;99.90;;;;;;5031678;28;20212;-75
2022/08/06 05:58:53;;;;;;;7.90;7.18;;;16.70;99.90;;;;;;5032004;28;20203;-76
2022/08/06 06:01:19;;;;;;;8.05;7.45;;;16.80;99.90;;;;;;5024768;28;20173;-76
2022/08/06 06:03:46;;;;;;;8.43;7.65;;;16.90;99.90;;;;;;5012177;28;20172;-76
2022/08/06 06:06:12;;;;;;;8.82;8.10;;;16.90;99.90;;;;;;5014439;28;20196;-76
2022/08/06 06:08:39;;;;;;;8.35;7.75;;;17.00;99.90;;;;;;5027177;28;20184;-75
2022/08/06 06:11:07;;;;;;;7.90;7.30;;;17.10;99.90;;;;;;5011784;28;20177;-75
2022/08/06 06:13:33;;;;;;;7.82;7.15;;;17.20;99.90;;;;;;5011794;28;20223;-74
2022/08/06 06:16:19;;;;;;;8.60;7.90;;;17.30;99.90;;;;;;5012304;28;20225;-74
2022/08/06 06:18:57;;;;;;;7.60;7.00;;;17.30;99.90;;;;;;5023929;28;20189;-74
2022/08/06 06:22:03;;;;;;;7.40;6.80;;;17.30;99.90;;;;;;5025684;28;20580;-74
2022/08/06 06:24:36;;;;;;;7.93;7.00;;;17.40;99.90;;;;;;5026804;28;20177;-74
2022/08/06 06:27:17;;;;;;;8.23;7.63;;;17.50;99.90;;;;;;5031167;28;20682;-74
2022/08/06 06:30:03;;;;;;;7.18;6.68;;;17.70;99.90;;;;;;5034297;28;20242;-75
2022/08/06 06:32:44;;;;;;;6.63;6.13;;;18.00;99.90;;;;;;5035158;28;20207;-74
2022/08/06 06:35:22;;;;;;;7.50;7.00;;;18.50;99.90;;;;;;5031722;28;20678;-75
2022/08/06 06:38:06;;;;;;;6.60;6.10;;;18.70;99.90;;;;;;5035166;28;20196;-74
2022/08/06 06:40:49;;;;;;;8.18;7.45;;;18.70;99.90;;;;;;5034774;28;20179;-74
2022/08/06 06:43:29;;;;;;;7.13;6.63;;;18.80;99.90;;;;;;5032226;28;20234;-75
2022/08/06 06:46:09;;;;;;;6.47;5.88;;;19.00;99.90;;;;;;5034494;28;20279;-74
2022/08/06 06:48:54;;;;;;;7.43;6.90;;;19.00;99.90;;;;;;5033039;28;20427;-75
2022/08/06 06:51:44;;;;;;;7.22;6.63;;;19.20;99.90;;;;;;5017826;28;20256;-75
2022/08/06 06:54:22;;;;;;;7.15;6.55;;;19.30;99.90;;;;;;5014982;28;20227;-74
2022/08/06 06:56:50;;;;;;;8.13;7.32;;;19.50;99.90;;;;;;5014860;28;20207;-75
2022/08/06 06:59:30;;;;;;;7.45;6.85;;;19.50;99.90;;;;;;5016544;28;20177;-75
2022/08/06 07:01:57;;;;;;;7.65;6.68;;;19.60;99.90;;;;;;5050394;28;20255;-75
2022/08/06 07:04:25;;;;;;;7.07;6.57;;;19.60;99.90;;;;;;5054274;28;20215;-76
2022/08/06 07:06:54;;;;;;;7.47;6.88;;;19.60;99.90;;;;;;5023603;28;20284;-76
2022/08/06 07:09:22;;;;;;;8.00;7.40;;;19.60;99.90;;;;;;5014229;28;20177;-75
2022/08/06 07:11:50;;;;;;;7.97;7.38;;;19.90;99.90;;;;;;5014484;28;20202;-76
2022/08/06 07:14:18;;;;;;;6.53;6.03;;;20.20;99.90;;;;;;5022688;28;20647;-73
2022/08/06 07:16:44;;;;;;;6.30;5.80;;;20.60;99.90;;;;;;5033675;28;20199;-74
2022/08/06 07:19:11;;;;;;;6.57;6.10;;;21.00;99.90;;;;;;5034066;28;20727;-73
2022/08/06 07:21:42;;;;;;;6.85;6.25;;;21.40;99.90;;;;;;5034318;28;20165;-72
2022/08/06 07:24:11;;;;;;;7.53;6.93;;;21.70;99.90;;;;;;5018305;28;20193;-72
2022/08/06 07:26:38;;;;;;;7.03;6.53;;;21.50;99.90;;;;;;5033482;28;20573;-74
2022/08/06 07:29:04;;;;;;;6.45;6.03;;;21.30;99.90;;;;;;5041610;28;20184;-72
2022/08/06 07:31:31;;;;;;;6.90;6.35;;;21.20;99.90;;;;;;5053701;28;20219;-73
2022/08/06 07:33:58;;;;;;;7.25;6.55;;;21.10;99.90;;;;;;5024535;28;20196;-75
2022/08/06 07:36:27;;;;;;;7.13;6.53;;;21.00;99.90;;;;;;5013895;28;20233;-74
2022/08/06 07:39:00;;;;;;;7.45;6.90;;;20.90;99.90;;;;;;5021199;28;20177;-73
2022/08/06 07:41:27;;;;;;;7.22;6.68;;;21.00;99.90;;;;;;5019100;28;20205;-75
2022/08/06 07:43:57;;;;;;;7.53;6.93;;;20.80;99.90;;;;;;5014148;28;20592;-74
2022/08/06 07:46:28;;;;;;;6.80;6.30;;;20.90;99.90;;;;;;5033067;28;20318;-76
2022/08/06 07:48:57;;;;;;;7.30;6.68;;;21.10;99.90;;;;;;5033434;28;20173;-73
2022/08/06 07:51:27;;;;;;;5.95;5.43;;;21.00;99.90;;;;;;5026637;28;20591;-74
2022/08/06 07:53:54;;;;;;;6.45;5.75;;;21.30;99.90;;;;;;5033995;28;20255;-73
2022/08/06 07:56:21;;;;;;;5.78;5.35;;;21.50;99.90;;;;;;5034374;28;20284;-73
2022/08/06 07:58:48;;;;;;;6.53;5.97;;;21.50;99.90;;;;;;5033975;28;20173;-75
2022/08/06 08:01:14;;;;;;;6.25;5.75;;;21.50;99.90;;;;;;5013891;28;20268;-73
2022/08/06 08:06:27;;;;;;;5.70;5.22;;;21.50;99.90;;;;;;5014380;28;20316;-74
2022/08/06 08:09:02;;;;;;;5.05;4.65;;;21.40;99.90;;;;;;5013216;28;20193;-74
2022/08/06 08:11:30;;;;;;;5.05;4.65;;;21.10;99.90;;;;;;5013800;28;20173;-77
2022/08/06 08:13:58;;;;;;;4.25;3.95;;;20.90;99.90;;;;;;5013219;28;20189;-74
2022/08/06 08:16:26;;;;;;;4.88;4.43;;;20.70;99.90;;;;;;5013563;28;20209;-73
2022/08/06 08:18:52;;;;;;;4.55;4.15;;;20.70;99.90;;;;;;5020033;28;20205;-72
2022/08/06 08:21:19;;;;;;;5.18;4.00;;;20.70;99.90;;;;;;5031598;28;20682;-72
2022/08/06 08:23:47;;;;;;;4.20;3.92;;;20.60;99.90;;;;;;5029502;28;20173;-71
2022/08/06 08:26:12;;;;;;;4.20;3.90;;;20.50;99.90;;;;;;5032739;28;20231;-71
2022/08/06 08:28:38;;;;;;;4.72;4.32;;;20.50;99.90;;;;;;5032798;28;20227;-71
2022/08/06 08:31:06;;;;;;;4.45;4.18;;;20.40;99.90;;;;;;5017652;28;20212;-73
2022/08/06 08:33:32;;;;;;;4.15;3.85;;;20.40;99.90;;;;;;5023134;28;20184;-72
2022/08/06 08:35:58;;;;;;;4.18;3.78;;;20.50;99.90;;;;;;5031825;28;20193;-71
2022/08/06 08:38:24;;;;;;;5.43;3.90;;;20.80;99.90;;;;;;5017254;28;20180;-71
2022/08/06 08:40:51;;;;;;;4.22;3.92;;;21.00;99.90;;;;;;5030444;28;20169;-70
2022/08/06 08:43:29;;;;;;;4.28;3.97;;;21.30;99.90;;;;;;5027102;28;20181;-73
2022/08/06 08:45:56;;;;;;;3.83;3.53;;;21.10;99.90;;;;;;5026847;28;20223;-72
2022/08/06 08:48:24;;;;;;;4.25;3.90;;;21.20;99.90;;;;;;5029509;28;20254;-75
2022/08/06 08:50:50;;;;;;;3.75;3.55;;;21.70;99.90;;;;;;5024417;28;20555;-73
2022/08/06 08:53:25;;;;;;;3.67;3.33;;;22.20;99.90;;;;;;5029590;28;20566;-72
2022/08/06 08:55:51;;;;;;;4.22;3.35;;;22.50;99.90;;;;;;5032129;28;20196;-74
2022/08/06 08:58:17;;;;;;;3.53;3.28;;;23.50;99.90;;;;;;5032377;28;20177;-75
2022/08/06 09:00:42;;;;;;;3.30;3.08;;;24.10;99.90;;;;;;5030851;28;20733;-74
2022/08/06 09:03:08;;;;;;;3.15;2.85;;;24.60;99.90;;;;;;5032133;28;20181;-72
2022/08/06 09:05:34;;;;;;;3.83;3.15;;;24.80;99.90;;;;;;5032245;28;20705;-74
2022/08/06 09:08:02;;;;;;;4.13;2.90;;;25.10;98.70;;;;;;5029682;28;20169;-73
2022/08/06 09:10:29;;;;;;;3.65;3.35;;;24.80;98.20;;;;;;5012306;28;20197;-73
2022/08/06 09:12:55;;;;;;;3.30;3.05;;;24.40;98.50;;;;;;5017302;28;20275;-72
2022/08/06 09:15:20;;;;;;;3.30;3.10;;;23.70;99.90;;;;;;5031305;28;20288;-73
2022/08/06 09:17:48;;;;;;;7.50;3.72;;;23.00;99.90;;;;;;5026039;28;20209;-73
2022/08/06 09:20:15;;;;;;;4.78;3.70;;;22.70;99.90;;;;;;5031106;28;20224;-73
2022/08/06 09:22:44;;;;;;;3.90;3.55;;;22.30;99.90;;;;;;5031868;28;20246;-72
2022/08/06 09:25:35;;;;;;;3.42;3.15;;;22.10;99.90;;;;;;5029626;28;20243;-75
2022/08/06 09:28:01;;;;;;;5.60;3.40;;;21.80;99.90;;;;;;5012033;28;20181;-74
2022/08/06 09:30:26;;;;;;;4.22;3.80;;;21.60;99.90;;;;;;5011830;28;20260;-72
2022/08/06 09:32:54;;;;;;;3.58;3.28;;;21.50;99.90;;;;;;5011948;28;20177;-73
2022/08/06 09:35:21;;;;;;;3.72;3.42;;;21.50;99.90;;;;;;5029730;28;20207;-76
2022/08/06 09:37:49;;;;;;;2.75;2.55;;;21.50;99.90;;;;;;5025027;28;20208;-71
2022/08/06 09:40:17;;;;;;;3.03;2.83;;;21.60;99.90;;;;;;5030882;28;20226;-72
2022/08/06 09:42:48;;;;;;;2.90;2.80;;;21.60;99.90;;;;;;5029625;28;20705;-71
2022/08/06 09:45:15;;;;;;;3.05;2.85;;;21.70;99.90;;;;;;5023942;28;20291;-72
2022/08/06 09:47:41;;;;;;;2.60;2.40;;;22.00;99.90;;;;;;5031597;28;20207;-72
2022/08/06 09:50:08;;;;;;;2.78;2.55;;;22.80;99.90;;;;;;5030435;28;20670;-72
2022/08/06 09:52:34;;;;;;;2.97;2.78;;;23.90;99.90;;;;;;5011953;28;20181;-75
2022/08/06 09:55:00;;;;;;;2.60;2.50;;;24.20;99.90;;;;;;5012979;28;20211;-75
2022/08/06 09:57:42;;;;;;;4.88;3.08;;;24.00;99.90;;;;;;5028350;28;20208;-75
2022/08/06 10:00:09;;;;;;;3.15;2.92;;;23.40;99.90;;;;;;5021091;28;20180;-75
2022/08/06 10:02:34;;;;;;;3.50;2.83;;;23.10;99.90;;;;;;5013968;28;20676;-74
2022/08/06 10:05:09;;;;;;;2.67;2.58;;;23.40;99.90;;;;;;5015327;28;20201;-74
2022/08/06 10:07:34;;;;;;;2.70;2.50;;;25.80;99.90;;;;;;5010750;28;20192;-70
2022/08/06 10:10:00;;;;;;;2.88;2.60;;;28.50;93.80;;;;;;5011494;28;20173;-71
2022/08/06 10:12:26;;;;;;;2.30;2.10;;;31.20;80.80;;;;;;5018192;28;20588;-71
2022/08/06 10:14:51;;;;;;;2.08;1.98;;;33.20;69.30;;;;;;5030961;28;20265;-72
2022/08/06 10:17:22;;;;;;;1.90;1.90;;;33.70;64.30;;;;;;5016552;28;20231;-72
2022/08/06 10:20:08;;;;;;;1.80;1.70;;;33.50;62.20;;;;;;5016388;28;20168;-72
2022/08/06 10:22:34;;;;;;;1.95;1.85;;;32.30;63.90;;;;;;5028426;28;20218;-71
2022/08/06 10:25:03;;;;;;;2.20;2.00;;;30.80;67.50;;;;;;5023569;28;20204;-71
2022/08/06 10:27:33;;;;;;;2.35;2.03;;;29.60;70.70;;;;;;5011509;28;20173;-72
2022/08/06 10:30:03;;;;;;;1.85;1.70;;;28.70;74.20;;;;;;5030611;28;20208;-71
2022/08/06 10:32:36;;;;;;;2.30;2.20;;;29.80;74.20;;;;;;5031133;28;20186;-74
2022/08/06 10:35:04;;;;;;;2.10;2.00;;;32.10;65.90;;;;;;5011473;28;20200;-72
2022/08/06 10:37:35;;;;;;;2.13;1.83;;;34.00;60.50;;;;;;5011431;28;20572;-71
2022/08/06 10:40:03;;;;;;;1.80;1.70;;;34.90;57.00;;;;;;5011376;28;20291;-71
2022/08/06 10:42:29;;;;;;;1.95;1.85;;;33.80;57.60;;;;;;5012814;28;20189;-71
2022/08/06 10:44:57;;;;;;;1.88;1.88;;;33.10;58.20;;;;;;5026850;28;20282;-70
2022/08/06 10:47:24;;;;;;;1.88;1.60;;;33.80;57.70;;;;;;5031168;28;20168;-71
2022/08/06 10:49:52;;;;;;;1.65;1.60;;;35.20;55.50;;;;;;5030670;28;20180;-71
2022/08/06 10:52:17;;;;;;;1.27;1.27;;;35.40;54.10;;;;;;5013046;28;20193;-71
2022/08/06 10:54:44;;;;;;;1.80;1.70;;;35.70;54.20;;;;;;5031190;28;20203;-71
2022/08/06 10:57:14;;;;;;;3.53;1.60;;;36.60;51.50;;;;;;5031116;28;20214;-71
2022/08/06 10:59:40;;;;;;;1.20;1.20;;;37.20;50.30;;;;;;5023899;28;20185;-73
2022/08/06 11:02:25;;;;;;;1.23;1.23;;;37.60;50.50;;;;;;5012027;28;20177;-73
2022/08/06 11:05:04;;;;;;;4.07;1.70;;;36.70;49.70;;;;;;5030083;28;20246;-72
2022/08/06 11:07:44;;;;;;;1.50;1.40;;;35.60;51.10;;;;;;5024077;28;20183;-71
2022/08/06 11:10:37;;;;;;;2.13;2.03;;;35.30;51.60;;;;;;5018812;28;20602;-72
2022/08/06 11:13:59;;;;;;;1.83;1.73;;;35.20;52.20;;;;;;5023946;28;20188;-72
2022/08/06 11:16:28;;;;;;;2.30;2.10;;;35.70;51.00;;;;;;5031335;28;20200;-72
2022/08/06 11:19:06;;;;;;;3.08;1.60;;;35.30;50.30;;;;;;5031593;28;20666;-71
2022/08/06 11:21:38;;;;;;;2.00;1.90;;;34.30;51.90;;;;;;5033102;28;20417;-71
2022/08/06 11:24:04;;;;;;;2.00;1.90;;;32.70;54.60;;;;;;5026458;28;20181;-71
2022/08/06 11:26:40;;;;;;;2.42;1.45;;;32.30;56.50;;;;;;5033244;28;20290;-71
2022/08/06 11:29:07;;;;;;;2.22;2.08;;;33.60;53.60;;;;;;5033533;28;20187;-71
2022/08/06 11:31:35;;;;;;;2.55;1.80;;;34.50;52.40;;;;;;5030960;28;20207;-72
2022/08/06 11:34:06;;;;;;;2.40;1.60;;;35.20;51.20;;;;;;5025913;28;20180;-71
2022/08/06 11:36:59;;;;;;;1.83;1.73;;;34.80;51.60;;;;;;5033860;28;20207;-72
2022/08/06 11:39:27;;;;;;;1.77;1.67;;;33.30;53.00;;;;;;5029092;28;20259;-72
2022/08/06 11:41:54;;;;;;;1.90;1.80;;;33.30;54.40;;;;;;5025712;28;20172;-71
2022/08/06 11:44:22;;;;;;;1.55;1.55;;;33.70;54.30;;;;;;5033591;28;20241;-71
2022/08/06 11:46:49;;;;;;;1.73;1.63;;;34.80;52.10;;;;;;5033719;28;20183;-73
2022/08/06 11:49:18;;;;;;;2.28;1.50;;;35.80;49.80;;;;;;5031597;28;20194;-71
2022/08/06 11:51:57;;;;;;;1.75;1.27;;;35.50;49.40;;;;;;5014053;28;20224;-70
2022/08/06 11:54:26;;;;;;;1.65;1.55;;;35.50;50.00;;;;;;5013764;28;20177;-72
2022/08/06 11:56:58;;;;;;;1.58;1.58;;;36.10;49.20;;;;;;5013803;28;20236;-70
2022/08/06 11:59:25;;;;;;;2.28;1.83;;;36.40;48.50;;;;;;5013199;28;20233;-72
2022/08/06 12:01:51;;;;;;;2.00;1.73;;;35.70;48.20;;;;;;5013773;28;20184;-71
2022/08/06 12:04:32;;;;;;;1.70;1.60;;;35.70;48.20;;;;;;5013487;28;20165;-70
2022/08/06 12:07:24;;;;;;;1.63;1.52;;;35.70;48.20;;;;;;5013025;28;20175;-71
2022/08/06 12:10:04;;;;;;;1.65;1.65;;;35.10;49.60;;;;;;5011481;28;20169;-71
2022/08/06 12:12:34;;;;;;;1.75;1.65;;;34.80;50.00;;;;;;5026239;28;20200;-72
2022/08/06 12:15:26;;;;;;;1.50;1.40;;;35.10;49.00;;;;;;5010696;28;20275;-71
2022/08/06 12:17:57;;;;;;;2.53;1.55;;;34.80;49.90;;;;;;5011298;28;20298;-71
2022/08/06 12:20:41;;;;;;;1.60;1.50;;;34.70;49.70;;;;;;5011506;28;20527;-74
2022/08/06 12:23:09;;;;;;;1.40;1.40;;;35.10;48.60;;;;;;5011922;28;20539;-72
2022/08/06 12:25:40;;;;;;;2.03;1.45;;;34.20;49.50;;;;;;5013701;28;20745;-70
2022/08/06 12:28:08;;;;;;;1.95;1.77;;;33.50;51.70;;;;;;5013313;28;20179;-71
2022/08/06 12:30:41;;;;;;;1.48;1.42;;;33.30;51.30;;;;;;5012977;28;20184;-71
2022/08/06 12:33:11;;;;;;;1.75;1.65;;;33.40;50.90;;;;;;5013189;28;20169;-70
2022/08/06 12:36:07;;;;;;;1.30;1.30;;;33.40;51.40;;;;;;5028264;28;20193;-71
2022/08/06 12:38:34;;;;;;;2.45;1.95;;;33.70;51.30;;;;;;5012801;28;20253;-70
2022/08/06 12:41:05;;;;;;;3.70;1.63;;;34.90;49.60;;;;;;5013024;28;20180;-71
2022/08/06 12:43:32;;;;;;;2.03;1.83;;;35.70;47.90;;;;;;5013023;28;20172;-71
2022/08/06 12:46:05;;;;;;;1.50;1.40;;;36.00;47.30;;;;;;5012850;28;20217;-72
2022/08/06 12:48:33;;;;;;;1.60;1.50;;;36.50;46.50;;;;;;5012692;28;20177;-71
2022/08/06 12:51:11;;;;;;;1.30;1.20;;;36.80;45.60;;;;;;5031708;28;20218;-71
2022/08/06 12:54:02;;;;;;;1.58;1.58;;;36.30;46.40;;;;;;5032670;28;20692;-71
2022/08/06 12:56:30;;;;;;;2.65;1.33;;;36.80;44.90;;;;;;5032402;28;20203;-73
2022/08/06 12:58:57;;;;;;;1.40;1.40;;;37.30;44.00;;;;;;5013406;28;20216;-71
2022/08/06 13:01:26;;;;;;;1.27;1.20;;;38.10;43.50;;;;;;5012832;28;20592;-72
2022/08/06 13:03:53;;;;;;;1.10;1.10;;;39.80;41.40;;;;;;5012717;28;20219;-71
2022/08/06 13:06:22;;;;;;;1.73;1.30;;;39.80;40.70;;;;;;5012456;28;20628;-71